createdAt,value
2023-02-07T00:02:04.973Z,2.20
2023-02-07T00:04:34.491Z,2.10
2023-02-07T00:07:03.970Z,2.60
2023-02-07T00:09:33.436Z,2.60
2023-02-07T00:12:02.877Z,2.30
2023-02-07T00:14:32.502Z,2.40
2023-02-07T00:17:02.011Z,2.77
2023-02-07T00:19:31.476Z,2.63
2023-02-07T00:22:01.360Z,2.37
2023-02-07T00:24:30.823Z,2.87
2023-02-07T00:27:00.272Z,2.83
2023-02-07T00:29:29.745Z,2.83
2023-02-07T00:31:59.616Z,2.80
2023-02-07T00:34:29.091Z,2.60
2023-02-07T00:36:58.771Z,2.73
2023-02-07T00:39:28.268Z,2.60
2023-02-07T00:41:57.770Z,2.67
2023-02-07T00:44:27.243Z,3.10
2023-02-07T00:46:56.686Z,2.57
2023-02-07T00:49:26.532Z,2.93
2023-02-07T00:51:55.983Z,2.90
2023-02-07T00:54:25.441Z,2.60
2023-02-07T00:56:54.886Z,2.80
2023-02-07T00:59:24.361Z,3.03
2023-02-07T01:01:53.798Z,2.97
2023-02-07T01:04:23.273Z,3.00
2023-02-07T01:06:52.695Z,2.67
2023-02-07T01:09:22.175Z,2.90
2023-02-07T01:11:51.606Z,3.47
2023-02-07T01:14:21.663Z,2.80
2023-02-07T01:16:51.090Z,2.60
2023-02-07T01:19:21.017Z,2.83
2023-02-07T01:21:50.452Z,2.43
2023-02-07T01:24:19.982Z,2.70
2023-02-07T01:26:49.423Z,2.80
2023-02-07T01:29:18.896Z,3.03
2023-02-07T01:31:48.368Z,3.00
2023-02-07T01:34:17.879Z,3.23
2023-02-07T01:36:47.315Z,2.70
2023-02-07T01:39:16.792Z,3.60
2023-02-07T01:41:46.235Z,2.95
2023-02-07T01:44:29.385Z,3.07
2023-02-07T01:46:58.991Z,3.20
2023-02-07T01:49:33.058Z,2.87
2023-02-07T01:52:10.192Z,2.97
2023-02-07T01:54:41.287Z,2.50
2023-02-07T01:57:15.162Z,2.27
2023-02-07T01:59:46.231Z,2.73
2023-02-07T02:02:20.662Z,2.47
2023-02-07T02:04:53.345Z,2.80
2023-02-07T02:07:23.828Z,3.00
2023-02-07T02:09:53.945Z,2.87
2023-02-07T02:12:48.704Z,2.63
2023-02-07T02:15:37.668Z,2.73
2023-02-07T02:18:20.978Z,2.80
2023-02-07T02:21:21.673Z,2.73
2023-02-07T02:24:28.801Z,2.53
2023-02-07T02:27:08.433Z,2.83
2023-02-07T02:30:02.061Z,2.60
2023-02-07T02:32:57.057Z,2.90
2023-02-07T02:36:04.592Z,2.90
2023-02-07T02:38:41.307Z,3.00
2023-02-07T02:41:15.367Z,2.60
2023-02-07T02:43:52.034Z,2.50
2023-02-07T02:46:35.046Z,1.97
2023-02-07T02:49:07.368Z,2.57
2023-02-07T02:51:37.020Z,2.30
2023-02-07T02:54:09.924Z,3.23
2023-02-07T02:56:52.573Z,3.00
2023-02-07T02:59:35.681Z,2.70
2023-02-07T03:02:29.798Z,3.13
2023-02-07T03:05:57.710Z,3.40
2023-02-07T03:08:48.670Z,4.10
2023-02-07T03:11:23.004Z,3.17
2023-02-07T03:14:02.623Z,2.80
2023-02-07T03:16:51.633Z,3.37
2023-02-07T03:19:37.000Z,2.60
2023-02-07T03:22:11.262Z,3.20
2023-02-07T03:24:54.754Z,2.80
2023-02-07T03:27:27.782Z,2.20
2023-02-07T03:30:01.211Z,2.27
2023-02-07T03:32:35.236Z,2.30
2023-02-07T03:35:17.743Z,2.97
2023-02-07T03:37:54.622Z,2.80
2023-02-07T03:40:33.189Z,2.50
2023-02-07T03:43:07.462Z,3.00
2023-02-07T03:45:37.842Z,3.20
2023-02-07T03:48:07.520Z,3.53
2023-02-07T03:50:36.978Z,3.50
2023-02-07T03:53:07.428Z,3.70
2023-02-07T03:55:37.844Z,3.53
2023-02-07T03:58:08.516Z,3.77
2023-02-07T04:00:39.016Z,3.30
2023-02-07T04:03:08.866Z,3.83
2023-02-07T04:05:38.789Z,3.60
2023-02-07T04:08:08.365Z,2.83
2023-02-07T04:10:37.865Z,2.67
2023-02-07T04:13:07.567Z,2.90
2023-02-07T04:15:37.574Z,3.27
2023-02-07T04:18:07.229Z,3.33
2023-02-07T04:20:36.759Z,2.90
2023-02-07T04:23:06.203Z,3.23
2023-02-07T04:25:36.393Z,3.07
2023-02-07T04:28:05.968Z,3.83
2023-02-07T04:30:36.982Z,4.70
2023-02-07T04:33:06.399Z,5.67
2023-02-07T04:35:36.197Z,5.37
2023-02-07T04:38:05.787Z,5.40
2023-02-07T04:40:35.790Z,4.53
2023-02-07T04:43:05.240Z,4.50
2023-02-07T04:45:34.968Z,3.73
2023-02-07T04:48:04.488Z,3.20
2023-02-07T04:50:34.011Z,2.73
2023-02-07T04:53:03.464Z,2.70
2023-02-07T04:55:34.360Z,2.40
2023-02-07T04:58:04.670Z,2.17
2023-02-07T05:00:35.036Z,1.93
2023-02-07T05:03:04.482Z,2.17
2023-02-07T05:05:34.005Z,2.50
2023-02-07T05:08:03.450Z,2.37
2023-02-07T05:10:32.908Z,2.40
2023-02-07T05:13:02.622Z,2.30
2023-02-07T05:15:32.571Z,2.90
2023-02-07T05:18:02.309Z,2.80
2023-02-07T05:20:32.305Z,2.93
2023-02-07T05:23:01.766Z,3.50
2023-02-07T05:25:31.327Z,3.30
2023-02-07T05:28:01.683Z,2.83
2023-02-07T05:30:31.309Z,3.43
2023-02-07T05:33:06.831Z,3.20
2023-02-07T05:35:40.881Z,3.17
2023-02-07T05:38:14.949Z,2.97
2023-02-07T05:40:45.702Z,3.20
2023-02-07T05:43:15.794Z,3.43
2023-02-07T05:45:45.957Z,3.07
2023-02-07T05:48:15.590Z,3.50
2023-02-07T05:50:45.042Z,3.70
2023-02-07T05:53:14.495Z,3.30
2023-02-07T05:55:43.978Z,4.03
2023-02-07T05:58:13.439Z,3.50
2023-02-07T06:00:43.441Z,3.10
2023-02-07T06:03:12.922Z,3.37
2023-02-07T06:05:42.493Z,3.70
2023-02-07T06:08:11.948Z,5.30
2023-02-07T06:10:41.773Z,4.10
2023-02-07T06:13:11.230Z,3.53
2023-02-07T06:15:41.081Z,3.33
2023-02-07T06:18:10.776Z,3.00
2023-02-07T06:20:40.624Z,2.60
2023-02-07T06:23:10.192Z,2.57
2023-02-07T06:25:40.115Z,2.53
2023-02-07T06:28:09.803Z,3.57
2023-02-07T06:30:39.328Z,2.53
2023-02-07T06:33:08.763Z,2.80
2023-02-07T06:35:38.763Z,2.60
2023-02-07T06:38:08.316Z,2.83
2023-02-07T06:40:37.775Z,2.80
2023-02-07T06:43:09.005Z,2.87
2023-02-07T06:45:39.462Z,2.63
2023-02-07T06:48:10.505Z,2.53
2023-02-07T06:50:39.963Z,2.90
2023-02-07T06:53:09.402Z,2.37
2023-02-07T06:55:41.530Z,2.90
2023-02-07T06:58:11.441Z,3.07
2023-02-07T07:00:40.899Z,3.73
2023-02-07T07:03:16.937Z,4.00
2023-02-07T07:05:47.132Z,3.90
2023-02-07T07:08:18.246Z,3.60
2023-02-07T07:10:48.275Z,3.47
2023-02-07T07:13:17.887Z,2.93
2023-02-07T07:15:47.593Z,2.80
2023-02-07T07:18:17.273Z,3.27
2023-02-07T07:20:46.815Z,3.03
2023-02-07T07:23:16.254Z,3.53
2023-02-07T07:25:45.709Z,3.97
2023-02-07T07:28:15.239Z,4.43
2023-02-07T07:30:44.861Z,4.20
2023-02-07T07:33:14.295Z,4.20
2023-02-07T07:35:43.759Z,3.57
2023-02-07T07:38:13.496Z,3.90
2023-02-07T07:40:42.972Z,3.23
2023-02-07T07:43:12.414Z,3.40
2023-02-07T07:45:42.074Z,3.73
2023-02-07T07:48:11.529Z,3.50
2023-02-07T07:50:41.711Z,3.87
2023-02-07T07:53:11.494Z,3.77
2023-02-07T07:55:41.206Z,3.43
2023-02-07T07:58:10.704Z,4.50
2023-02-07T08:00:40.750Z,3.77
2023-02-07T08:03:11.094Z,5.40
2023-02-07T08:05:40.693Z,4.23
2023-02-07T08:08:10.452Z,4.60
2023-02-07T08:10:40.869Z,4.43
2023-02-07T08:13:10.998Z,3.67
2023-02-07T08:15:40.810Z,3.13
2023-02-07T08:18:10.253Z,3.10
2023-02-07T08:20:40.248Z,3.63
2023-02-07T08:23:09.997Z,3.07
2023-02-07T08:25:39.628Z,3.00
2023-02-07T08:28:09.465Z,3.20
2023-02-07T08:30:39.389Z,2.40
2023-02-07T08:33:09.226Z,2.30
2023-02-07T08:35:39.538Z,3.30
2023-02-07T08:38:09.362Z,3.10
2023-02-07T08:40:39.742Z,2.50
2023-02-07T08:43:11.105Z,2.63
2023-02-07T08:45:46.850Z,3.03
2023-02-07T08:48:16.954Z,2.70
2023-02-07T08:50:46.631Z,2.97
2023-02-07T08:53:16.159Z,2.83
2023-02-07T08:55:45.647Z,2.80
2023-02-07T08:58:15.101Z,2.13
2023-02-07T09:00:44.636Z,2.13
2023-02-07T09:03:15.375Z,2.07
2023-02-07T09:05:44.994Z,2.47
2023-02-07T09:08:14.449Z,2.63
2023-02-07T09:10:46.021Z,2.37
2023-02-07T09:13:15.146Z,2.43
2023-02-07T09:15:44.595Z,2.17
2023-02-07T09:18:14.108Z,2.33
2023-02-07T09:20:45.325Z,3.03
2023-02-07T09:23:21.045Z,3.40
2023-02-07T09:25:53.665Z,3.77
2023-02-07T09:28:23.515Z,3.43
2023-02-07T09:30:53.661Z,3.37
2023-02-07T09:33:26.308Z,3.00
2023-02-07T09:35:55.764Z,2.70
2023-02-07T09:38:28.468Z,2.60
2023-02-07T09:40:59.918Z,2.23
2023-02-07T09:43:46.255Z,2.40
2023-02-07T09:46:32.065Z,2.30
2023-02-07T09:49:15.123Z,2.50
2023-02-07T09:51:47.640Z,2.03
2023-02-07T09:54:30.078Z,2.27
2023-02-07T09:57:04.383Z,2.00
2023-02-07T09:59:47.331Z,1.93
2023-02-07T10:02:30.079Z,2.07
2023-02-07T10:05:06.514Z,2.70
2023-02-07T10:07:36.681Z,2.40
2023-02-07T10:10:07.738Z,2.50
2023-02-07T10:13:09.773Z,1.90
2023-02-07T10:16:14.637Z,2.17
2023-02-07T10:19:01.236Z,2.13
2023-02-07T10:21:43.226Z,2.50
2023-02-07T10:24:29.434Z,2.30
2023-02-07T10:27:11.719Z,2.30
2023-02-07T10:29:54.294Z,2.20
2023-02-07T10:32:28.389Z,2.37
2023-02-07T10:35:02.439Z,2.00
2023-02-07T10:37:36.584Z,2.13
2023-02-07T10:40:29.157Z,3.20
2023-02-07T10:43:09.155Z,2.57
2023-02-07T10:45:41.745Z,2.40
2023-02-07T10:48:19.892Z,2.37
2023-02-07T10:50:49.937Z,2.00
2023-02-07T10:53:55.009Z,2.00
2023-02-07T10:56:29.099Z,2.13
2023-02-07T10:59:00.948Z,2.00
2023-02-07T11:01:33.478Z,2.10
2023-02-07T11:04:03.243Z,3.80
2023-02-07T11:06:35.767Z,4.27
2023-02-07T11:09:25.597Z,3.37
2023-02-07T11:11:56.689Z,3.50
2023-02-07T11:14:28.515Z,2.60
2023-02-07T11:17:02.039Z,2.93
2023-02-07T11:19:32.885Z,3.03
2023-02-07T11:22:19.044Z,3.20
2023-02-07T11:24:50.086Z,2.47
2023-02-07T11:27:22.954Z,4.23
2023-02-07T11:30:02.972Z,3.70
2023-02-07T11:32:32.715Z,3.30
2023-02-07T11:35:09.645Z,2.80
2023-02-07T11:37:51.718Z,2.67
2023-02-07T11:40:40.959Z,2.50
2023-02-07T11:43:17.968Z,2.60
2023-02-07T11:45:51.845Z,5.80
2023-02-07T11:48:28.496Z,4.57
2023-02-07T11:51:03.335Z,3.30
2023-02-07T11:53:40.258Z,3.50
2023-02-07T11:56:29.098Z,3.07
2023-02-07T11:59:00.920Z,3.37
2023-02-07T12:01:34.576Z,2.90
2023-02-07T12:04:39.062Z,2.57
2023-02-07T12:07:21.566Z,2.50
2023-02-07T12:09:58.333Z,2.60
2023-02-07T12:12:53.067Z,2.50
2023-02-07T12:15:45.431Z,3.13
2023-02-07T12:18:19.482Z,2.90
2023-02-07T12:21:05.688Z,2.90
2023-02-07T12:23:51.803Z,3.17
2023-02-07T12:26:31.530Z,2.83
2023-02-07T12:29:31.050Z,2.60
2023-02-07T12:32:27.396Z,2.90
2023-02-07T12:35:37.728Z,2.87
2023-02-07T12:38:20.332Z,2.53
2023-02-07T12:41:10.386Z,2.50
2023-02-07T12:43:44.684Z,2.60
2023-02-07T12:46:30.013Z,2.60
2023-02-07T12:49:13.517Z,2.77
2023-02-07T12:51:56.509Z,2.77
2023-02-07T12:55:06.628Z,2.70
2023-02-07T12:57:46.372Z,2.57
2023-02-07T13:01:03.509Z,2.13
2023-02-07T13:04:05.657Z,2.00
2023-02-07T13:06:57.532Z,1.70
2023-02-07T13:09:43.475Z,2.23
2023-02-07T13:12:35.476Z,2.53
2023-02-07T13:15:29.687Z,2.70
2023-02-07T13:18:09.603Z,2.50
2023-02-07T13:20:49.381Z,3.00
2023-02-07T13:23:25.857Z,2.43
2023-02-07T13:25:59.896Z,2.50
2023-02-07T13:28:59.117Z,2.43
2023-02-07T13:31:54.272Z,2.70
2023-02-07T13:34:34.640Z,3.50
2023-02-07T13:37:16.340Z,2.30
2023-02-07T13:40:21.162Z,2.83
2023-02-07T13:43:13.186Z,3.40
2023-02-07T13:46:05.230Z,3.70
2023-02-07T13:48:39.398Z,2.77
2023-02-07T13:51:31.483Z,3.03
2023-02-07T13:54:41.662Z,2.67
2023-02-07T13:57:42.207Z,2.13
2023-02-07T14:00:21.131Z,2.10
2023-02-07T14:02:55.439Z,2.17
2023-02-07T14:05:32.575Z,2.90
2023-02-07T14:08:09.745Z,2.40
2023-02-07T14:10:45.640Z,2.50
2023-02-07T14:13:34.555Z,2.07
2023-02-07T14:16:09.006Z,1.80
2023-02-07T14:18:49.082Z,1.57
2023-02-07T14:21:26.263Z,1.60
2023-02-07T14:24:12.704Z,1.30
2023-02-07T14:26:52.088Z,1.90
2023-02-07T14:29:28.803Z,1.57
2023-02-07T14:32:21.175Z,1.83
2023-02-07T14:35:04.201Z,1.70
2023-02-07T14:37:43.537Z,2.03
2023-02-07T14:40:32.838Z,1.70
2023-02-07T14:43:15.703Z,1.67
2023-02-07T14:46:04.423Z,2.03
2023-02-07T14:48:47.018Z,1.80
2023-02-07T14:51:45.140Z,1.63
2023-02-07T14:54:43.073Z,1.93
2023-02-07T14:57:27.947Z,1.47
2023-02-07T15:00:37.742Z,1.53
2023-02-07T15:03:17.792Z,1.60
2023-02-07T15:05:59.405Z,1.70
2023-02-07T15:08:36.429Z,1.60
2023-02-07T15:11:14.762Z,1.50
2023-02-07T15:13:49.882Z,1.40
2023-02-07T15:16:33.200Z,1.27
2023-02-07T15:19:25.304Z,1.30
2023-02-07T15:21:54.819Z,1.52
2023-02-07T15:24:51.081Z,1.67
2023-02-07T15:27:25.855Z,1.63
2023-02-07T15:30:05.391Z,1.60
2023-02-07T15:32:45.724Z,1.37
2023-02-07T15:35:28.646Z,1.40
2023-02-07T15:38:14.519Z,1.13
2023-02-07T15:40:44.164Z,1.40
2023-02-07T15:43:34.849Z,1.50
2023-02-07T15:46:09.092Z,1.33
2023-02-07T15:48:58.159Z,1.50
2023-02-07T15:51:33.807Z,1.27
2023-02-07T15:54:04.029Z,1.30
2023-02-07T15:56:35.952Z,1.50
2023-02-07T15:59:15.809Z,1.53
2023-02-07T16:01:54.106Z,1.63
2023-02-07T16:04:27.653Z,1.03
2023-02-07T16:07:04.804Z,1.43
2023-02-07T16:09:47.076Z,1.30
2023-02-07T16:12:45.210Z,1.10
2023-02-07T16:15:33.506Z,1.37
2023-02-07T16:18:06.121Z,1.10
2023-02-07T16:20:38.124Z,1.50
2023-02-07T16:23:10.087Z,1.37
2023-02-07T16:25:39.690Z,1.20
2023-02-07T16:28:13.761Z,1.17
2023-02-07T16:30:43.330Z,1.00
2023-02-07T16:33:15.074Z,1.00
2023-02-07T16:35:44.503Z,1.37
2023-02-07T16:38:14.031Z,1.40
2023-02-07T16:40:43.709Z,1.53
2023-02-07T16:43:23.448Z,1.10
2023-02-07T16:45:54.628Z,1.10
2023-02-07T16:48:24.125Z,1.33
2023-02-07T16:50:53.626Z,1.23
2023-02-07T16:53:23.061Z,1.37
2023-02-07T16:55:55.762Z,1.50
2023-02-07T16:58:32.920Z,1.27
2023-02-07T17:01:03.003Z,1.33
2023-02-07T17:03:32.471Z,1.37
2023-02-07T17:06:01.952Z,1.20
2023-02-07T17:08:31.405Z,1.23
2023-02-07T17:11:06.465Z,1.47
2023-02-07T17:13:36.179Z,1.60
2023-02-07T17:16:05.882Z,1.27
2023-02-07T17:18:35.734Z,1.20
2023-02-07T17:21:05.307Z,1.50
2023-02-07T17:23:34.757Z,1.10
2023-02-07T17:26:06.305Z,1.17
2023-02-07T17:28:37.120Z,1.40
2023-02-07T17:31:06.632Z,1.20
2023-02-07T17:33:36.159Z,1.00
2023-02-07T17:36:06.803Z,1.50
2023-02-07T17:38:36.261Z,1.27
2023-02-07T17:41:05.888Z,1.87
2023-02-07T17:43:35.620Z,2.93
2023-02-07T17:46:05.421Z,2.30
2023-02-07T17:48:34.868Z,2.20
2023-02-07T17:51:04.444Z,1.80
2023-02-07T17:53:33.887Z,2.27
2023-02-07T17:56:03.331Z,1.87
2023-02-07T17:58:34.635Z,2.00
2023-02-07T18:01:04.098Z,1.55
2023-02-07T18:03:33.695Z,1.50
2023-02-07T18:06:03.195Z,1.63
2023-02-07T18:08:32.705Z,1.90
2023-02-07T18:11:03.780Z,2.00
2023-02-07T18:13:33.459Z,2.87
2023-02-07T18:16:02.981Z,2.63
2023-02-07T18:18:32.459Z,2.50
2023-02-07T18:21:03.478Z,2.47
2023-02-07T18:23:33.461Z,3.13
2023-02-07T18:26:04.581Z,4.33
2023-02-07T18:28:34.433Z,3.93
2023-02-07T18:31:15.688Z,3.13
2023-02-07T18:33:45.565Z,2.87
2023-02-07T18:36:15.403Z,2.50
2023-02-07T18:38:45.218Z,2.93
2023-02-07T18:41:21.843Z,2.80
2023-02-07T18:43:51.727Z,2.90
2023-02-07T18:46:22.774Z,3.00
2023-02-07T18:48:57.568Z,3.40
2023-02-07T18:51:27.207Z,3.00
2023-02-07T18:53:56.639Z,2.97
2023-02-07T18:56:27.786Z,3.20
2023-02-07T18:58:57.498Z,3.37
2023-02-07T19:01:30.573Z,3.60
2023-02-07T19:04:01.661Z,3.03
2023-02-07T19:06:34.665Z,2.70
2023-02-07T19:09:04.625Z,2.87
2023-02-07T19:11:34.095Z,2.80
2023-02-07T19:14:03.891Z,3.03
2023-02-07T19:16:33.330Z,2.93
2023-02-07T19:19:03.470Z,2.83
2023-02-07T19:21:33.132Z,3.13
2023-02-07T19:24:07.447Z,2.93
2023-02-07T19:26:39.398Z,2.93
2023-02-07T19:29:09.284Z,3.20
2023-02-07T19:31:40.291Z,3.30
2023-02-07T19:34:10.312Z,3.40
2023-02-07T19:36:40.953Z,2.97
2023-02-07T19:39:11.412Z,3.23
2023-02-07T19:41:40.845Z,3.30
2023-02-07T19:44:10.574Z,3.30
2023-02-07T19:46:40.195Z,3.60
2023-02-07T19:49:11.761Z,3.03
2023-02-07T19:51:42.603Z,3.10
2023-02-07T19:54:12.394Z,3.43
2023-02-07T19:56:42.607Z,3.37
2023-02-07T19:59:12.722Z,3.30
2023-02-07T20:01:42.270Z,3.67
2023-02-07T20:04:11.795Z,4.00
2023-02-07T20:06:41.448Z,4.23
2023-02-07T20:09:11.125Z,3.97
2023-02-07T20:11:40.623Z,3.60
2023-02-07T20:14:10.959Z,3.27
2023-02-07T20:16:40.659Z,3.13
2023-02-07T20:19:10.342Z,3.23
2023-02-07T20:21:41.034Z,3.60
2023-02-07T20:24:10.648Z,3.23
2023-02-07T20:26:43.882Z,3.00
2023-02-07T20:29:16.356Z,3.57
2023-02-07T20:31:48.069Z,3.20
2023-02-07T20:34:18.681Z,2.50
2023-02-07T20:36:48.104Z,2.97
2023-02-07T20:39:23.401Z,2.83
2023-02-07T20:41:53.504Z,2.70
2023-02-07T20:44:26.768Z,2.93
2023-02-07T20:47:00.411Z,2.70
2023-02-07T20:49:34.008Z,2.80
2023-02-07T20:52:03.453Z,3.20
2023-02-07T20:54:33.514Z,3.03
2023-02-07T20:57:03.010Z,3.17
2023-02-07T20:59:34.570Z,3.73
2023-02-07T21:02:04.207Z,6.40
2023-02-07T21:04:34.779Z,4.43
2023-02-07T21:07:05.424Z,4.00
2023-02-07T21:09:35.008Z,3.77
2023-02-07T21:12:04.687Z,3.10
2023-02-07T21:14:35.138Z,3.50
2023-02-07T21:17:07.382Z,3.37
2023-02-07T21:19:39.759Z,3.70
2023-02-07T21:22:09.770Z,3.17
2023-02-07T21:24:39.225Z,3.07
2023-02-07T21:27:08.659Z,3.30
2023-02-07T21:29:38.622Z,3.40
2023-02-07T21:32:08.234Z,3.20
2023-02-07T21:34:37.736Z,3.13
2023-02-07T21:37:07.329Z,3.40
2023-02-07T21:39:36.806Z,3.70
2023-02-07T21:42:06.307Z,3.33
2023-02-07T21:44:35.759Z,3.53
2023-02-07T21:47:05.193Z,3.00
2023-02-07T21:49:34.642Z,3.20
2023-02-07T21:52:04.082Z,3.00
2023-02-07T21:54:33.553Z,3.23
2023-02-07T21:57:03.064Z,2.70
2023-02-07T21:59:32.514Z,2.90
2023-02-07T22:02:02.037Z,2.80
2023-02-07T22:04:31.561Z,3.20
2023-02-07T22:07:01.060Z,3.13
2023-02-07T22:09:30.592Z,2.50
2023-02-07T22:12:00.041Z,2.80
2023-02-07T22:14:30.063Z,2.63
2023-02-07T22:16:59.518Z,3.00
2023-02-07T22:19:29.414Z,2.80
2023-02-07T22:21:59.007Z,3.00
2023-02-07T22:24:30.128Z,2.60
2023-02-07T22:26:59.573Z,2.53
2023-02-07T22:29:29.427Z,2.73
2023-02-07T22:31:58.963Z,2.73
2023-02-07T22:34:28.520Z,3.23
2023-02-07T22:36:57.999Z,2.80
2023-02-07T22:39:27.447Z,2.57
2023-02-07T22:41:57.737Z,2.93
2023-02-07T22:44:27.184Z,2.60
2023-02-07T22:46:56.892Z,2.73
2023-02-07T22:49:26.375Z,2.67
2023-02-07T22:51:55.813Z,2.60
2023-02-07T22:54:25.289Z,2.83
2023-02-07T22:56:54.738Z,2.70
2023-02-07T22:59:24.202Z,2.77
2023-02-07T23:01:53.644Z,2.73
2023-02-07T23:04:23.820Z,3.20
2023-02-07T23:06:53.744Z,3.17
2023-02-07T23:09:23.259Z,3.00
2023-02-07T23:11:52.702Z,2.90
2023-02-07T23:14:22.170Z,2.70
2023-02-07T23:16:51.612Z,2.87
2023-02-07T23:19:21.170Z,2.70
2023-02-07T23:21:50.621Z,2.93
2023-02-07T23:24:20.086Z,2.80
2023-02-07T23:26:49.570Z,3.60
2023-02-07T23:29:19.108Z,3.20
2023-02-07T23:31:48.810Z,3.53
2023-02-07T23:34:18.757Z,3.43
2023-02-07T23:36:49.075Z,3.23
2023-02-07T23:39:18.757Z,3.20
2023-02-07T23:41:48.220Z,2.67
2023-02-07T23:44:17.925Z,2.80
2023-02-07T23:46:47.437Z,2.70
2023-02-07T23:49:17.598Z,3.23
2023-02-07T23:51:47.045Z,3.00
2023-02-07T23:54:16.569Z,2.80
2023-02-07T23:56:46.025Z,2.70
2023-02-07T23:59:15.479Z,3.00
